Time;durP1;ratioP1;P1;durP2;ratioP2;P2;SDS_P1;SDS_P2;PMS_P1;PMS_P2;Temp;Humidity;BMP_temperature;BMP_pressure;BME280_temperature;BME280_humidity;BME280_pressure;Samples;Min_cycle;Max_cycle;Signal;HPM_P1;HPM_P2
2021/06/09 00:01:06;;;;;;;9.27;7.57;;;20.30;99.90;;;;;;5034389;28;20075;-67
2021/06/09 00:03:32;;;;;;;8.20;7.32;;;20.30;99.90;;;;;;5053053;28;20426;-68
2021/06/09 00:05:59;;;;;;;8.98;7.32;;;20.30;99.90;;;;;;5034356;28;20021;-67
2021/06/09 00:08:24;;;;;;;7.50;6.75;;;20.30;99.90;;;;;;5052762;28;20071;-68
2021/06/09 00:10:55;;;;;;;9.75;7.55;;;20.20;99.90;;;;;;5053093;28;20025;-68
2021/06/09 00:13:22;;;;;;;9.35;8.30;;;20.10;99.90;;;;;;5052463;28;20017;-68
2021/06/09 00:15:49;;;;;;;7.40;6.70;;;20.10;99.90;;;;;;5035039;28;20071;-68
2021/06/09 00:18:14;;;;;;;8.13;7.32;;;20.10;99.90;;;;;;5034266;28;20035;-68
2021/06/09 00:20:40;;;;;;;9.23;8.07;;;20.20;99.90;;;;;;5052540;28;20049;-67
2021/06/09 00:23:06;;;;;;;9.15;8.20;;;20.10;99.90;;;;;;5034086;28;20039;-68
2021/06/09 00:25:32;;;;;;;8.55;7.70;;;20.10;99.90;;;;;;5034716;28;20404;-67
2021/06/09 00:27:59;;;;;;;10.95;7.72;;;20.00;99.90;;;;;;5034857;28;20442;-69
2021/06/09 00:30:31;;;;;;;9.85;8.18;;;20.00;99.90;;;;;;5034739;28;20052;-68
2021/06/09 00:32:58;;;;;;;11.82;7.63;;;20.00;99.90;;;;;;5034401;28;20113;-69
2021/06/09 00:35:25;;;;;;;9.65;7.70;;;20.00;99.90;;;;;;5052535;28;20051;-69
2021/06/09 00:37:51;;;;;;;8.40;7.60;;;20.00;99.90;;;;;;5034451;28;20370;-69
2021/06/09 00:40:17;;;;;;;10.40;7.10;;;20.00;99.90;;;;;;5033851;28;20033;-68
2021/06/09 00:43:21;;;;;;;11.00;8.07;;;20.00;99.90;;;;;;5034373;28;20024;-68
2021/06/09 00:45:57;;;;;;;9.13;7.28;;;19.90;99.90;;;;;;5034395;28;20031;-68
2021/06/09 00:48:26;;;;;;;9.20;8.18;;;20.00;99.90;;;;;;5033444;28;20033;-68
2021/06/09 00:50:58;;;;;;;11.10;7.63;;;19.90;99.90;;;;;;5033673;28;20037;-68
2021/06/09 00:53:27;;;;;;;10.30;7.38;;;19.90;99.90;;;;;;5051853;28;20112;-68
2021/06/09 00:55:57;;;;;;;8.55;7.65;;;19.90;99.90;;;;;;5034390;28;20439;-68
2021/06/09 00:58:23;;;;;;;8.82;7.93;;;19.90;99.90;;;;;;5033244;28;20036;-68
2021/06/09 01:00:50;;;;;;;8.27;7.47;;;19.90;99.90;;;;;;5052089;28;20044;-67
2021/06/09 01:03:16;;;;;;;11.48;7.93;;;19.90;99.90;;;;;;5051667;28;20077;-68
2021/06/09 01:05:42;;;;;;;11.77;7.47;;;19.90;99.90;;;;;;5051909;28;20114;-68
2021/06/09 01:08:08;;;;;;;8.32;7.53;;;19.90;99.90;;;;;;5033415;28;20464;-68
2021/06/09 01:10:34;;;;;;;8.38;7.53;;;19.80;99.90;;;;;;5051847;28;20055;-68
2021/06/09 01:13:04;;;;;;;10.13;8.68;;;19.90;99.90;;;;;;5033760;28;20033;-68
2021/06/09 01:15:30;;;;;;;9.38;7.63;;;19.80;99.90;;;;;;5033919;28;20028;-67
2021/06/09 01:17:57;;;;;;;7.90;7.15;;;19.80;99.90;;;;;;5033931;28;20017;-67
2021/06/09 01:20:23;;;;;;;11.27;7.97;;;19.90;99.90;;;;;;5033088;28;20475;-67
2021/06/09 01:22:49;;;;;;;9.05;8.15;;;19.90;99.90;;;;;;5033730;28;20021;-67
2021/06/09 01:25:20;;;;;;;8.65;7.85;;;19.90;99.90;;;;;;5051046;28;20017;-67
2021/06/09 01:27:47;;;;;;;10.18;8.00;;;19.90;99.90;;;;;;5051398;28;20040;-67
2021/06/09 01:30:14;;;;;;;9.88;8.88;;;19.90;99.90;;;;;;5032618;28;20029;-68
2021/06/09 01:32:40;;;;;;;9.45;7.55;;;19.80;99.90;;;;;;5051449;28;20049;-68
2021/06/09 01:35:06;;;;;;;8.77;7.88;;;19.70;99.90;;;;;;5032912;28;20048;-68
2021/06/09 01:37:32;;;;;;;10.75;8.40;;;19.70;99.90;;;;;;5033184;28;20036;-68
2021/06/09 01:39:59;;;;;;;9.50;8.18;;;19.80;99.90;;;;;;5033301;28;20037;-68
2021/06/09 01:42:31;;;;;;;8.82;7.82;;;19.70;99.90;;;;;;5050862;28;20056;-69
2021/06/09 01:44:57;;;;;;;8.00;7.03;;;19.80;99.90;;;;;;5051712;28;20020;-69
2021/06/09 01:47:24;;;;;;;8.90;8.00;;;19.80;99.90;;;;;;5050770;28;20158;-69
2021/06/09 01:49:50;;;;;;;8.82;7.80;;;19.80;99.90;;;;;;5033290;28;20078;-69
2021/06/09 01:52:20;;;;;;;9.77;8.88;;;19.80;99.90;;;;;;5032118;28;20431;-69
2021/06/09 01:54:46;;;;;;;9.10;8.02;;;19.80;99.90;;;;;;5033133;28;20033;-69
2021/06/09 01:57:14;;;;;;;10.85;8.80;;;19.80;99.90;;;;;;5050137;28;20117;-70
2021/06/09 01:59:42;;;;;;;10.77;8.27;;;19.70;99.90;;;;;;5033188;28;20035;-70
2021/06/09 02:02:08;;;;;;;10.95;8.38;;;19.80;99.90;;;;;;5050324;28;20104;-70
2021/06/09 02:04:34;;;;;;;8.73;7.82;;;19.80;99.90;;;;;;5051384;28;20045;-69
2021/06/09 02:06:59;;;;;;;9.65;8.68;;;19.60;99.90;;;;;;5050745;28;20044;-69
2021/06/09 02:09:25;;;;;;;8.93;8.05;;;19.60;99.90;;;;;;5050348;28;20025;-69
2021/06/09 02:11:51;;;;;;;9.32;7.72;;;19.70;99.90;;;;;;5050153;28;20029;-70
2021/06/09 02:14:18;;;;;;;9.25;7.50;;;19.60;99.90;;;;;;5032375;28;20450;-69
2021/06/09 02:16:45;;;;;;;9.60;8.00;;;19.60;99.90;;;;;;5050921;28;20047;-69
2021/06/09 02:19:13;;;;;;;10.70;7.88;;;19.70;99.90;;;;;;5032158;28;20077;-70
2021/06/09 02:21:40;;;;;;;10.60;7.80;;;19.60;99.90;;;;;;5050455;28;20036;-68
2021/06/09 02:24:08;;;;;;;10.13;7.70;;;19.60;99.90;;;;;;5050091;28;20040;-69
2021/06/09 02:26:35;;;;;;;9.60;7.88;;;19.60;99.90;;;;;;5050450;28;20017;-68
2021/06/09 02:29:03;;;;;;;16.77;8.60;;;19.60;99.90;;;;;;5032672;28;20485;-68
2021/06/09 02:31:29;;;;;;;8.43;7.60;;;19.50;99.90;;;;;;5032056;28;20032;-69
2021/06/09 02:33:56;;;;;;;9.65;7.95;;;19.40;99.90;;;;;;5032320;28;20024;-68
2021/06/09 02:36:22;;;;;;;9.07;8.18;;;19.40;99.90;;;;;;5031945;28;20035;-68
2021/06/09 02:38:49;;;;;;;9.52;8.20;;;19.50;99.90;;;;;;5032508;28;20033;-68
2021/06/09 02:41:15;;;;;;;8.85;7.85;;;19.50;99.90;;;;;;5050069;28;20021;-68
2021/06/09 02:43:41;;;;;;;9.27;8.30;;;19.60;99.90;;;;;;5032641;28;20032;-68
2021/06/09 02:46:25;;;;;;;9.57;7.50;;;19.60;99.90;;;;;;5032130;28;20021;-71
2021/06/09 02:49:07;;;;;;;10.13;8.20;;;19.50;99.90;;;;;;5050434;28;20033;-68
2021/06/09 02:51:42;;;;;;;8.82;7.43;;;19.50;99.90;;;;;;5050108;28;20151;-68
2021/06/09 02:54:19;;;;;;;8.43;7.63;;;19.40;99.90;;;;;;5031956;28;20119;-71
2021/06/09 02:56:58;;;;;;;9.88;8.10;;;19.40;99.90;;;;;;5032434;28;20134;-68
2021/06/09 02:59:26;;;;;;;9.68;8.68;;;19.40;99.90;;;;;;5049702;28;20033;-68
2021/06/09 03:02:10;;;;;;;10.20;7.20;;;19.40;99.90;;;;;;5050806;28;20025;-69
2021/06/09 03:04:52;;;;;;;8.88;8.00;;;19.30;99.90;;;;;;5050641;28;20446;-68
2021/06/09 03:07:31;;;;;;;10.45;8.35;;;19.30;99.90;;;;;;5031849;28;20043;-68
2021/06/09 03:10:04;;;;;;;11.45;8.23;;;19.20;99.90;;;;;;5032391;28;20343;-68
2021/06/09 03:12:41;;;;;;;10.05;8.73;;;19.20;99.90;;;;;;5049935;28;20047;-67
2021/06/09 03:15:13;;;;;;;11.02;9.23;;;19.20;99.90;;;;;;5032354;28;20028;-67
2021/06/09 03:17:54;;;;;;;9.15;8.25;;;19.10;99.90;;;;;;5050087;28;20021;-68
2021/06/09 03:20:33;;;;;;;11.23;8.60;;;19.10;99.90;;;;;;5049609;28;20072;-68
2021/06/09 03:23:06;;;;;;;9.30;8.40;;;19.20;99.90;;;;;;5035347;28;20141;-68
2021/06/09 03:25:40;;;;;;;10.30;8.48;;;19.10;99.90;;;;;;5035318;28;20170;-68
2021/06/09 03:28:21;;;;;;;8.85;7.72;;;19.20;99.90;;;;;;5035839;28;20036;-68
2021/06/09 03:30:53;;;;;;;10.00;8.70;;;19.00;99.90;;;;;;5035917;28;20021;-67
2021/06/09 03:33:20;;;;;;;9.02;8.07;;;18.90;99.90;;;;;;5035303;28;20048;-68
2021/06/09 03:35:49;;;;;;;9.93;8.85;;;19.00;99.90;;;;;;5053718;28;20059;-67
2021/06/09 03:38:27;;;;;;;12.70;8.43;;;19.10;99.90;;;;;;5053297;28;20276;-68
2021/06/09 03:40:59;;;;;;;9.95;8.52;;;19.10;99.90;;;;;;5035760;28;20064;-68
2021/06/09 03:43:27;;;;;;;9.50;8.27;;;19.10;99.90;;;;;;5053276;28;20025;-68
2021/06/09 03:45:54;;;;;;;13.10;9.13;;;19.10;99.90;;;;;;5053688;28;20021;-68
2021/06/09 03:48:21;;;;;;;12.05;8.60;;;19.20;99.90;;;;;;5053016;28;20017;-68
2021/06/09 03:50:49;;;;;;;11.02;9.52;;;19.10;99.90;;;;;;5035152;28;20033;-68
2021/06/09 03:53:15;;;;;;;11.10;9.75;;;19.20;99.90;;;;;;5035112;28;20025;-68
2021/06/09 03:55:44;;;;;;;11.88;8.80;;;19.10;99.90;;;;;;5035363;28;20024;-67
2021/06/09 03:58:13;;;;;;;12.73;9.52;;;19.10;99.90;;;;;;5053479;28;20035;-68
2021/06/09 04:00:41;;;;;;;12.40;8.20;;;19.10;99.90;;;;;;5035219;28;20029;-67
2021/06/09 04:03:08;;;;;;;11.32;9.15;;;19.10;99.90;;;;;;5035390;28;20476;-68
2021/06/09 04:05:38;;;;;;;10.07;8.43;;;19.00;99.90;;;;;;5052165;28;20094;-68
2021/06/09 04:08:05;;;;;;;9.50;8.55;;;19.10;99.90;;;;;;5034844;28;20115;-68
2021/06/09 04:10:35;;;;;;;10.88;8.45;;;19.10;99.90;;;;;;5034623;28;20180;-68
2021/06/09 04:13:00;;;;;;;10.93;9.40;;;19.10;99.90;;;;;;5034685;28;20013;-68
2021/06/09 04:15:28;;;;;;;10.40;8.63;;;19.10;99.90;;;;;;5052030;28;20087;-68
2021/06/09 04:17:55;;;;;;;9.30;7.95;;;19.10;99.90;;;;;;5052961;28;20422;-68
2021/06/09 04:20:26;;;;;;;11.38;9.43;;;19.10;99.90;;;;;;5034065;28;20029;-69
2021/06/09 04:22:52;;;;;;;12.63;9.43;;;19.10;99.90;;;;;;5053112;28;20032;-68
2021/06/09 04:25:20;;;;;;;11.07;9.90;;;19.00;99.90;;;;;;5034141;28;20128;-69
2021/06/09 04:27:47;;;;;;;10.10;9.10;;;19.00;99.90;;;;;;5034822;28;20430;-68
2021/06/09 04:30:15;;;;;;;10.95;8.98;;;19.00;99.90;;;;;;5052637;28;20075;-69
2021/06/09 04:32:59;;;;;;;10.70;8.82;;;19.10;99.90;;;;;;5034129;28;20377;-68
2021/06/09 04:35:45;;;;;;;13.40;9.57;;;19.20;99.90;;;;;;5052112;28;20029;-68
2021/06/09 04:38:18;;;;;;;12.02;8.27;;;19.20;99.90;;;;;;5052339;28;20063;-68
2021/06/09 04:40:46;;;;;;;13.77;8.57;;;19.30;99.90;;;;;;5034355;28;20025;-68
2021/06/09 04:43:12;;;;;;;12.15;8.88;;;19.40;99.90;;;;;;5052432;28;20035;-68
2021/06/09 04:45:38;;;;;;;11.95;9.02;;;19.30;99.90;;;;;;5033759;28;20020;-68
2021/06/09 04:48:11;;;;;;;17.25;9.95;;;19.30;99.90;;;;;;5052398;28;20477;-70
2021/06/09 04:50:38;;;;;;;10.80;9.52;;;19.30;99.90;;;;;;5033212;28;20031;-68
2021/06/09 04:53:10;;;;;;;9.73;8.75;;;19.50;99.90;;;;;;5033735;28;20412;-68
2021/06/09 04:55:45;;;;;;;10.88;9.18;;;19.50;99.90;;;;;;5051655;28;20032;-68
2021/06/09 04:58:13;;;;;;;15.10;10.20;;;19.50;99.90;;;;;;5034287;28;20024;-68
2021/06/09 05:00:41;;;;;;;14.63;9.40;;;19.50;99.90;;;;;;5051256;28;20028;-68
2021/06/09 05:03:07;;;;;;;14.85;9.85;;;19.60;99.90;;;;;;5033591;28;20350;-68
2021/06/09 05:05:33;;;;;;;15.77;10.85;;;19.60;99.90;;;;;;5032966;28;20025;-69
2021/06/09 05:07:58;;;;;;;18.20;9.70;;;19.60;99.90;;;;;;5051682;28;20025;-67
2021/06/09 05:10:25;;;;;;;13.02;9.57;;;19.70;99.90;;;;;;5033100;28;20052;-68
2021/06/09 05:12:55;;;;;;;15.13;8.90;;;19.80;99.90;;;;;;5034099;28;20021;-70
2021/06/09 05:15:27;;;;;;;17.65;9.82;;;20.00;99.90;;;;;;5034115;28;20021;-70
2021/06/09 05:17:53;;;;;;;12.32;9.40;;;20.10;99.90;;;;;;5033915;28;20029;-69
2021/06/09 05:20:26;;;;;;;10.68;8.45;;;20.10;99.90;;;;;;5032768;28;20040;-68
2021/06/09 05:23:16;;;;;;;13.30;10.38;;;20.20;99.90;;;;;;5033389;28;20040;-69
2021/06/09 05:25:44;;;;;;;10.68;9.10;;;20.30;99.90;;;;;;5032448;28;20141;-68
2021/06/09 05:28:13;;;;;;;9.02;8.13;;;20.40;99.90;;;;;;5051134;28;20077;-69
2021/06/09 05:30:40;;;;;;;8.68;7.75;;;20.50;99.90;;;;;;5032577;28;20048;-70
2021/06/09 05:33:07;;;;;;;11.63;9.77;;;20.50;99.90;;;;;;5033031;28;20169;-69
2021/06/09 05:35:33;;;;;;;9.50;8.57;;;20.50;99.90;;;;;;5050737;28;20021;-69
2021/06/09 05:38:00;;;;;;;11.82;9.30;;;20.60;99.90;;;;;;5033010;28;20326;-69
2021/06/09 05:40:26;;;;;;;24.17;9.65;;;20.70;99.90;;;;;;5031965;28;20052;-70
2021/06/09 05:42:52;;;;;;;12.73;9.25;;;20.70;99.90;;;;;;5033064;28;20110;-70
2021/06/09 05:45:32;;;;;;;14.07;8.70;;;20.80;99.90;;;;;;5049724;28;20419;-73
2021/06/09 05:47:58;;;;;;;12.85;9.32;;;20.90;99.90;;;;;;5032419;28;20021;-69
2021/06/09 05:50:26;;;;;;;10.40;8.95;;;20.90;99.90;;;;;;5049769;28;20465;-69
2021/06/09 05:52:54;;;;;;;10.27;8.50;;;21.00;99.90;;;;;;5031913;28;20044;-69
2021/06/09 05:55:22;;;;;;;12.23;8.57;;;21.10;99.90;;;;;;5031502;28;20362;-69
2021/06/09 05:57:50;;;;;;;9.85;8.85;;;21.20;99.90;;;;;;5032114;28;20029;-70
2021/06/09 06:00:18;;;;;;;10.88;8.95;;;21.30;99.90;;;;;;5050176;28;20029;-70
2021/06/09 06:02:48;;;;;;;19.10;10.48;;;21.40;99.90;;;;;;5050549;28;20442;-70
2021/06/09 06:05:15;;;;;;;10.43;8.30;;;21.50;99.90;;;;;;5032234;28;20036;-70
2021/06/09 06:07:42;;;;;;;14.07;8.82;;;21.40;99.90;;;;;;5031935;28;20043;-69
2021/06/09 06:10:09;;;;;;;15.18;9.98;;;21.50;99.90;;;;;;5032340;28;20032;-69
2021/06/09 06:12:36;;;;;;;14.52;9.02;;;21.50;99.90;;;;;;5031596;28;20024;-69
2021/06/09 06:15:05;;;;;;;11.45;8.75;;;21.50;99.90;;;;;;5032140;28;20107;-69
2021/06/09 06:17:31;;;;;;;10.30;8.18;;;21.60;99.90;;;;;;5031750;28;20075;-68
2021/06/09 06:19:56;;;;;;;11.05;9.15;;;21.60;99.90;;;;;;5049766;28;20080;-69
2021/06/09 06:22:22;;;;;;;10.10;9.00;;;21.70;99.90;;;;;;5049566;28;20052;-69
2021/06/09 06:24:50;;;;;;;10.52;9.07;;;21.50;99.90;;;;;;5049329;28;20364;-69
2021/06/09 06:27:17;;;;;;;10.00;8.55;;;21.60;99.90;;;;;;5050023;28;20025;-69
2021/06/09 06:29:45;;;;;;;10.02;8.93;;;21.60;99.90;;;;;;5031344;28;20119;-69
2021/06/09 06:32:13;;;;;;;8.98;8.07;;;21.70;99.90;;;;;;5031855;28;20508;-68
2021/06/09 06:34:46;;;;;;;9.80;8.80;;;21.70;99.90;;;;;;5049472;28;20063;-69
2021/06/09 06:37:13;;;;;;;13.20;10.35;;;21.80;99.90;;;;;;5031759;28;20135;-69
2021/06/09 06:39:40;;;;;;;9.40;8.43;;;21.90;99.90;;;;;;5031443;28;20071;-69
2021/06/09 06:42:07;;;;;;;12.85;8.27;;;22.00;99.90;;;;;;5031979;28;20071;-69
2021/06/09 06:44:34;;;;;;;7.50;5.78;;;22.00;99.90;;;;;;5032152;28;20433;-69
2021/06/09 06:47:03;;;;;;;5.72;4.45;;;22.00;99.90;;;;;;5068136;28;20032;-68
2021/06/09 06:49:30;;;;;;;5.75;5.15;;;22.40;99.90;;;;;;5067540;28;20056;-67
2021/06/09 06:51:57;;;;;;;6.93;5.88;;;22.70;99.90;;;;;;5067754;28;20059;-66
2021/06/09 06:54:24;;;;;;;7.03;6.20;;;22.90;99.90;;;;;;5067612;28;20116;-70
2021/06/09 06:56:53;;;;;;;8.73;5.57;;;23.00;99.90;;;;;;5050625;28;20052;-68
2021/06/09 06:59:26;;;;;;;9.05;6.00;;;23.10;99.90;;;;;;5072253;28;20038;-68
2021/06/09 07:01:52;;;;;;;7.53;5.63;;;23.20;99.90;;;;;;5071794;28;20035;-69
2021/06/09 07:04:21;;;;;;;7.32;6.63;;;23.40;99.90;;;;;;5048651;28;20098;-69
2021/06/09 07:06:49;;;;;;;8.75;6.75;;;23.50;99.90;;;;;;5036091;28;20462;-69
2021/06/09 07:09:16;;;;;;;10.10;8.00;;;23.60;99.90;;;;;;5051103;28;20603;-68
2021/06/09 07:11:44;;;;;;;6.55;5.97;;;23.70;99.90;;;;;;5049245;28;20068;-69
2021/06/09 07:14:11;;;;;;;8.55;6.05;;;23.90;99.90;;;;;;5061473;28;20051;-70
2021/06/09 07:16:39;;;;;;;12.45;7.35;;;23.90;99.90;;;;;;5051990;28;20124;-70
2021/06/09 07:19:10;;;;;;;15.45;7.10;;;24.00;99.90;;;;;;5053510;28;20036;-70
2021/06/09 07:21:38;;;;;;;8.25;6.00;;;24.00;99.90;;;;;;5052783;28;20052;-70
2021/06/09 07:24:05;;;;;;;11.13;6.43;;;24.10;99.90;;;;;;5071187;28;20085;-70
2021/06/09 07:26:53;;;;;;;9.05;6.28;;;24.10;99.90;;;;;;5070026;28;20036;-71
2021/06/09 07:29:22;;;;;;;13.70;6.95;;;24.10;99.90;;;;;;5071134;28;20078;-50
2021/06/09 07:31:49;;;;;;;6.75;6.07;;;24.20;99.90;;;;;;5070644;28;20036;-50
2021/06/09 07:34:16;;;;;;;9.80;5.75;;;24.40;99.90;;;;;;5071465;28;20039;-52
2021/06/09 07:36:55;;;;;;;10.52;6.75;;;24.40;99.90;;;;;;5070414;28;20125;-53
2021/06/09 07:39:26;;;;;;;9.98;7.82;;;24.40;99.90;;;;;;5070653;28;20418;-51
2021/06/09 07:41:53;;;;;;;12.80;8.45;;;24.50;99.90;;;;;;5071208;28;20072;-51
2021/06/09 07:44:20;;;;;;;10.10;7.00;;;24.60;99.90;;;;;;5069857;28;20067;-51
2021/06/09 07:46:49;;;;;;;8.57;6.90;;;24.70;99.90;;;;;;5070561;28;20119;-52
2021/06/09 07:49:16;;;;;;;9.05;6.10;;;24.80;99.90;;;;;;5070494;28;20033;-51
2021/06/09 07:51:45;;;;;;;8.77;7.03;;;24.80;99.90;;;;;;5069791;28;20087;-51
2021/06/09 07:54:12;;;;;;;14.55;7.13;;;24.80;99.90;;;;;;5036650;28;20521;-51
2021/06/09 07:56:40;;;;;;;12.98;7.57;;;24.80;99.90;;;;;;5051810;28;20035;-51
2021/06/09 07:59:08;;;;;;;14.75;7.30;;;24.80;99.90;;;;;;5070893;28;20058;-51
2021/06/09 08:01:35;;;;;;;9.93;7.55;;;24.90;99.90;;;;;;5070097;28;20135;-51
2021/06/09 08:04:02;;;;;;;7.57;6.65;;;25.00;99.90;;;;;;5052894;28;20021;-53
2021/06/09 08:06:28;;;;;;;7.88;6.13;;;25.10;99.90;;;;;;5069748;28;20021;-52
2021/06/09 08:08:54;;;;;;;9.10;6.57;;;25.20;99.90;;;;;;5069373;28;20024;-52
2021/06/09 08:11:21;;;;;;;12.02;6.63;;;25.30;99.90;;;;;;5052239;28;20024;-53
2021/06/09 08:13:48;;;;;;;8.73;7.22;;;25.50;99.90;;;;;;5051472;28;20039;-52
2021/06/09 08:16:16;;;;;;;10.05;7.10;;;25.70;99.90;;;;;;5070505;28;20442;-52
2021/06/09 08:18:43;;;;;;;8.52;6.95;;;25.60;99.90;;;;;;5069020;28;20124;-52
2021/06/09 08:21:14;;;;;;;10.90;7.80;;;25.70;99.90;;;;;;5051721;28;20274;-52
2021/06/09 08:23:42;;;;;;;7.53;6.90;;;26.00;99.90;;;;;;5051604;28;20051;-51
2021/06/09 08:26:10;;;;;;;8.00;7.10;;;25.90;99.90;;;;;;5070316;28;20103;-52
2021/06/09 08:28:37;;;;;;;8.13;7.32;;;26.00;99.90;;;;;;5069815;28;20049;-52
2021/06/09 08:31:04;;;;;;;7.95;7.15;;;26.10;99.90;;;;;;5051794;28;20115;-54
2021/06/09 08:33:32;;;;;;;8.40;6.53;;;26.10;99.90;;;;;;5051153;28;20177;-52
2021/06/09 08:35:58;;;;;;;7.10;5.88;;;26.10;99.90;;;;;;5052136;28;20127;-52
2021/06/09 08:38:24;;;;;;;7.25;6.53;;;26.20;99.80;;;;;;5051673;28;20233;-53
2021/06/09 08:40:50;;;;;;;11.10;6.90;;;26.40;99.20;;;;;;5069974;28;20418;-52
2021/06/09 08:43:17;;;;;;;8.27;7.47;;;26.30;99.80;;;;;;5070048;28;20384;-52
2021/06/09 08:45:45;;;;;;;7.30;6.65;;;26.20;99.60;;;;;;5069652;28;20021;-51
2021/06/09 08:48:11;;;;;;;7.63;6.72;;;26.30;99.90;;;;;;5069650;28;20028;-51
2021/06/09 08:50:37;;;;;;;6.95;5.82;;;26.50;99.70;;;;;;5069012;28;20470;-52
2021/06/09 08:53:06;;;;;;;7.78;7.07;;;26.70;99.20;;;;;;5069921;28;20140;-52
2021/06/09 08:55:34;;;;;;;8.90;7.07;;;26.60;98.80;;;;;;5051542;28;20029;-52
2021/06/09 08:58:04;;;;;;;6.97;6.28;;;26.70;99.30;;;;;;5069565;28;20300;-53
2021/06/09 09:00:32;;;;;;;10.55;7.10;;;27.10;99.20;;;;;;5068634;28;20467;-53
2021/06/09 09:02:59;;;;;;;8.73;7.55;;;27.20;98.50;;;;;;5051438;28;20033;-53
2021/06/09 09:05:26;;;;;;;8.05;6.30;;;27.00;98.10;;;;;;5068745;28;20154;-53
2021/06/09 09:07:52;;;;;;;8.85;7.22;;;27.10;98.50;;;;;;5069271;28;20462;-53
2021/06/09 09:10:19;;;;;;;9.10;7.00;;;27.30;97.90;;;;;;5069027;28;20025;-53
2021/06/09 09:12:47;;;;;;;7.80;7.00;;;27.50;97.70;;;;;;5050467;28;20370;-51
2021/06/09 09:15:13;;;;;;;13.82;7.43;;;27.70;97.90;;;;;;5069242;28;20028;-52
2021/06/09 09:18:00;;;;;;;7.43;6.25;;;27.90;97.30;;;;;;5068627;28;20025;-52
2021/06/09 09:20:26;;;;;;;9.05;6.75;;;27.70;96.70;;;;;;5052739;28;20099;-53
2021/06/09 09:22:56;;;;;;;10.60;6.68;;;27.50;97.10;;;;;;5030771;28;20021;-54
2021/06/09 09:25:23;;;;;;;6.72;5.97;;;27.70;97.10;;;;;;5048903;28;20047;-52
2021/06/09 09:27:54;;;;;;;7.45;6.32;;;27.90;97.50;;;;;;5056730;28;20029;-53
2021/06/09 09:30:22;;;;;;;7.07;6.28;;;28.30;97.00;;;;;;5068970;28;20038;-51
2021/06/09 09:33:07;;;;;;;10.57;6.88;;;28.50;96.50;;;;;;5061583;28;20036;-50
2021/06/09 09:35:38;;;;;;;6.85;6.20;;;28.80;96.90;;;;;;5030295;28;20033;-51
2021/06/09 09:38:27;;;;;;;7.75;6.07;;;28.80;98.20;;;;;;5048375;28;20128;-51
2021/06/09 09:41:08;;;;;;;18.13;7.30;;;28.90;97.80;;;;;;5048423;28;20132;-51
2021/06/09 09:43:54;;;;;;;8.15;6.00;;;29.30;99.20;;;;;;5052874;28;20024;-51
2021/06/09 09:46:30;;;;;;;8.55;6.15;;;29.00;96.80;;;;;;5048020;28;20446;-51
2021/06/09 09:49:06;;;;;;;10.45;6.38;;;28.90;96.60;;;;;;5029829;28;20083;-51
2021/06/09 09:51:35;;;;;;;6.88;5.60;;;28.50;96.90;;;;;;5047206;28;20049;-52
2021/06/09 09:54:04;;;;;;;6.28;5.07;;;28.30;96.90;;;;;;5048223;28;20036;-52
2021/06/09 09:56:32;;;;;;;5.57;4.55;;;28.00;95.70;;;;;;5047866;28;20029;-54
2021/06/09 09:59:03;;;;;;;6.32;5.20;;;27.80;96.10;;;;;;5029259;28;20541;-51
2021/06/09 10:01:34;;;;;;;8.70;5.35;;;27.90;96.10;;;;;;5053783;28;20028;-51
2021/06/09 10:04:00;;;;;;;;;;;27.60;96.40;;;;;;5050125;28;20029;-52
2021/06/09 10:06:32;;;;;;;6.18;5.50;;;27.40;96.60;;;;;;5049013;28;19912;-52
2021/06/09 10:09:26;;;;;;;9.10;6.30;;;27.00;97.00;;;;;;5049682;28;20545;-51
2021/06/09 10:11:56;;;;;;;7.85;5.07;;;27.00;96.90;;;;;;5060673;28;20040;-52
2021/06/09 10:14:31;;;;;;;7.63;4.40;;;26.90;96.80;;;;;;5067871;28;20044;-52
2021/06/09 10:17:03;;;;;;;5.65;4.57;;;27.10;96.60;;;;;;5033538;28;20028;-54
2021/06/09 10:19:44;;;;;;;5.53;4.18;;;27.40;95.50;;;;;;5049244;28;20040;-53
2021/06/09 10:22:19;;;;;;;5.95;4.70;;;27.70;95.10;;;;;;5050248;28;20050;-53
2021/06/09 10:24:49;;;;;;;5.47;4.93;;;27.70;94.50;;;;;;5049821;28;20028;-53
2021/06/09 10:27:17;;;;;;;7.07;4.93;;;27.80;95.30;;;;;;5050287;28;20052;-53
2021/06/09 10:29:43;;;;;;;6.68;5.05;;;27.80;94.80;;;;;;5048728;28;20332;-55
2021/06/09 10:32:18;;;;;;;5.85;5.22;;;27.70;95.50;;;;;;5067136;28;20025;-53
2021/06/09 10:34:46;;;;;;;8.35;5.72;;;27.80;95.40;;;;;;5067677;28;20143;-55
2021/06/09 10:37:12;;;;;;;7.85;5.30;;;28.00;95.30;;;;;;5049889;28;20354;-53
2021/06/09 10:39:40;;;;;;;6.28;5.68;;;28.20;95.10;;;;;;5067178;28;20028;-52
2021/06/09 10:42:17;;;;;;;5.93;5.43;;;28.20;94.20;;;;;;5067374;28;20115;-54
2021/06/09 10:44:46;;;;;;;6.93;4.85;;;28.10;94.40;;;;;;5048575;28;20903;-54
2021/06/09 10:47:32;;;;;;;5.60;5.10;;;28.00;94.00;;;;;;5067600;28;20033;-53
2021/06/09 10:49:59;;;;;;;7.13;5.75;;;27.80;94.60;;;;;;5049391;28;20105;-54
2021/06/09 10:52:25;;;;;;;5.35;4.95;;;27.70;95.00;;;;;;5066186;28;20060;-53
2021/06/09 10:54:50;;;;;;;5.82;5.22;;;27.80;94.70;;;;;;5049903;28;20609;-56
2021/06/09 10:57:16;;;;;;;7.65;5.40;;;27.90;94.00;;;;;;5049217;28;20445;-54
2021/06/09 10:59:43;;;;;;;7.07;5.00;;;27.90;94.30;;;;;;5048753;28;20036;-53
2021/06/09 11:02:12;;;;;;;5.40;4.88;;;28.10;93.70;;;;;;5067739;28;20122;-53
2021/06/09 11:04:43;;;;;;;4.75;4.35;;;28.10;93.60;;;;;;5067194;28;20044;-53
2021/06/09 11:07:34;;;;;;;5.57;5.07;;;28.30;93.10;;;;;;5050094;28;20025;-54
2021/06/09 11:10:04;;;;;;;5.25;4.75;;;28.30;92.40;;;;;;5039687;28;20460;-53
2021/06/09 11:12:36;;;;;;;7.22;4.72;;;28.40;92.70;;;;;;5060146;28;20040;-53
2021/06/09 11:15:11;;;;;;;8.07;5.30;;;28.40;92.50;;;;;;5066859;28;20179;-53
2021/06/09 11:17:45;;;;;;;5.43;5.03;;;28.50;92.50;;;;;;5067040;28;20028;-53
2021/06/09 11:20:20;;;;;;;6.03;4.35;;;28.60;92.00;;;;;;5049065;28;20036;-53
2021/06/09 11:22:53;;;;;;;5.43;4.50;;;28.80;92.00;;;;;;5066765;28;20382;-53
2021/06/09 11:25:49;;;;;;;5.45;4.95;;;28.80;91.70;;;;;;5067833;28;20037;-53
2021/06/09 11:28:16;;;;;;;6.18;5.30;;;28.90;92.00;;;;;;5064247;28;20032;-54
2021/06/09 11:30:52;;;;;;;5.18;4.72;;;29.10;90.80;;;;;;5066806;28;20040;-53
2021/06/09 11:33:50;;;;;;;8.40;4.95;;;29.20;91.40;;;;;;5048908;28;20031;-55
2021/06/09 11:36:19;;;;;;;5.20;4.80;;;29.00;90.80;;;;;;5055568;28;20442;-53
2021/06/09 11:39:10;;;;;;;6.13;5.53;;;29.00;91.40;;;;;;5048880;28;20032;-54
2021/06/09 11:41:37;;;;;;;5.30;4.70;;;29.30;91.50;;;;;;5048861;28;20098;-55
2021/06/09 11:44:04;;;;;;;4.72;4.32;;;29.10;90.80;;;;;;5041246;28;20362;-54
2021/06/09 11:46:38;;;;;;;5.38;4.55;;;28.90;91.10;;;;;;5032353;28;20446;-54
2021/06/09 11:49:12;;;;;;;10.68;4.45;;;28.70;91.20;;;;;;5032693;28;20025;-53
2021/06/09 11:51:46;;;;;;;9.98;4.10;;;28.60;90.50;;;;;;5049823;28;20060;-54
2021/06/09 11:54:15;;;;;;;4.90;3.92;;;28.70;90.70;;;;;;5050115;28;20033;-53
2021/06/09 11:56:57;;;;;;;3.70;3.40;;;28.80;90.40;;;;;;5050293;28;20060;-54
2021/06/09 11:59:33;;;;;;;4.68;4.13;;;28.90;89.10;;;;;;5050659;28;20036;-53
2021/06/09 12:02:02;;;;;;;4.03;3.72;;;29.50;90.20;;;;;;5032552;28;20021;-55
2021/06/09 12:04:40;;;;;;;4.65;4.00;;;29.80;90.00;;;;;;5049593;28;20036;-53
2021/06/09 12:07:11;;;;;;;4.18;3.78;;;30.00;91.00;;;;;;5050544;28;20477;-53
2021/06/09 12:09:38;;;;;;;6.38;4.32;;;29.90;90.60;;;;;;5049479;28;20051;-53
2021/06/09 12:12:10;;;;;;;4.50;4.10;;;29.80;90.60;;;;;;5015654;28;20111;-55
2021/06/09 12:14:41;;;;;;;4.28;3.80;;;29.70;90.60;;;;;;5049234;28;20025;-54
2021/06/09 12:17:30;;;;;;;4.47;4.07;;;29.70;90.60;;;;;;5050866;28;20028;-53
2021/06/09 12:20:00;;;;;;;7.65;4.30;;;29.90;90.90;;;;;;5036529;28;20066;-53
2021/06/09 12:22:29;;;;;;;5.88;4.15;;;30.00;90.40;;;;;;5069614;28;20029;-55
2021/06/09 12:25:01;;;;;;;5.95;4.28;;;30.20;91.10;;;;;;5052179;28;20410;-54
2021/06/09 12:27:27;;;;;;;4.75;3.85;;;30.30;90.80;;;;;;5069713;28;20031;-54
2021/06/09 12:29:53;;;;;;;4.07;3.75;;;30.50;90.80;;;;;;5042936;28;20485;-54
2021/06/09 12:32:26;;;;;;;5.47;3.65;;;30.40;90.60;;;;;;5049492;28;20173;-53
2021/06/09 12:35:06;;;;;;;5.20;3.65;;;30.50;90.30;;;;;;5049626;28;20028;-55
2021/06/09 12:37:36;;;;;;;3.92;3.25;;;30.70;89.50;;;;;;5049164;28;20029;-53
2021/06/09 12:40:13;;;;;;;10.63;3.83;;;30.60;89.10;;;;;;5049567;28;20033;-54
2021/06/09 12:42:45;;;;;;;3.35;3.05;;;30.70;90.00;;;;;;5031145;28;20438;-53
2021/06/09 12:45:11;;;;;;;3.95;3.22;;;30.70;89.00;;;;;;5050009;28;20044;-54
2021/06/09 12:47:39;;;;;;;4.05;3.55;;;30.80;87.50;;;;;;5014682;28;20033;-54
2021/06/09 12:50:35;;;;;;;5.35;3.75;;;30.70;85.90;;;;;;5049514;28;20033;-54
2021/06/09 12:53:06;;;;;;;3.60;3.30;;;30.50;86.70;;;;;;5030118;28;20048;-55
2021/06/09 12:55:36;;;;;;;4.18;3.20;;;30.30;85.80;;;;;;5030061;28;20087;-55
2021/06/09 12:58:05;;;;;;;5.65;3.30;;;30.10;85.70;;;;;;5031620;28;20143;-55